createdAt,value
2018-12-07T00:01:31.986Z,11.50
2018-12-07T00:04:00.303Z,11.50
2018-12-07T00:06:28.621Z,11.50
2018-12-07T00:08:57.046Z,11.40
2018-12-07T00:11:25.426Z,11.50
2018-12-07T00:13:53.909Z,11.50
2018-12-07T00:16:22.366Z,11.50
2018-12-07T00:18:50.664Z,11.50
2018-12-07T00:21:19.512Z,11.40
2018-12-07T00:23:47.784Z,11.40
2018-12-07T00:26:16.048Z,11.40
2018-12-07T00:28:44.315Z,11.50
2018-12-07T00:31:12.804Z,11.50
2018-12-07T00:33:41.069Z,11.50
2018-12-07T00:36:10.055Z,11.50
2018-12-07T00:38:38.478Z,11.50
2018-12-07T00:41:06.782Z,11.50
2018-12-07T00:43:35.135Z,11.50
2018-12-07T00:46:03.514Z,11.50
2018-12-07T00:48:31.828Z,11.50
2018-12-07T00:51:00.174Z,11.50
2018-12-07T00:53:28.496Z,11.50
2018-12-07T00:55:56.812Z,11.50
2018-12-07T00:58:25.263Z,11.50
2018-12-07T01:00:53.545Z,11.50
2018-12-07T01:03:21.829Z,11.50
2018-12-07T01:05:50.136Z,11.50
2018-12-07T01:08:18.958Z,11.50
2018-12-07T01:10:47.235Z,11.50
2018-12-07T01:13:15.584Z,11.40
2018-12-07T01:15:43.963Z,11.40
2018-12-07T01:18:12.234Z,11.40
2018-12-07T01:20:40.503Z,11.40
2018-12-07T01:23:08.882Z,11.40
2018-12-07T01:25:37.147Z,11.30
2018-12-07T01:28:05.448Z,11.30
2018-12-07T01:30:33.736Z,11.30
2018-12-07T01:33:01.999Z,11.30
2018-12-07T01:35:30.336Z,11.30
2018-12-07T01:37:58.714Z,11.30
2018-12-07T01:40:27.463Z,11.30
2018-12-07T01:42:55.837Z,11.30
2018-12-07T01:45:24.123Z,11.30
2018-12-07T01:47:52.359Z,11.30
2018-12-07T01:50:20.674Z,11.30
2018-12-07T01:52:48.961Z,11.20
2018-12-07T01:55:17.275Z,11.20
2018-12-07T01:57:45.600Z,11.20
2018-12-07T02:00:13.982Z,11.20
2018-12-07T02:02:42.383Z,11.30
2018-12-07T02:05:10.678Z,11.30
2018-12-07T02:07:38.945Z,11.30
2018-12-07T02:10:08.298Z,11.20
2018-12-07T02:12:36.679Z,11.20
2018-12-07T02:15:05.652Z,11.20
2018-12-07T02:17:34.131Z,11.20
2018-12-07T02:20:02.534Z,11.20
2018-12-07T02:22:31.395Z,11.20
2018-12-07T02:25:02.032Z,11.20
2018-12-07T02:27:36.490Z,11.20
2018-12-07T02:30:05.531Z,11.20
2018-12-07T02:32:33.834Z,11.10
2018-12-07T02:35:02.182Z,11.10
2018-12-07T02:37:30.450Z,11.10
2018-12-07T02:39:59.553Z,11.10
2018-12-07T02:42:27.905Z,11.10
2018-12-07T02:44:56.200Z,11.00
2018-12-07T02:47:24.492Z,11.00
2018-12-07T02:49:52.733Z,11.00
2018-12-07T02:52:21.023Z,11.00
2018-12-07T02:54:49.354Z,11.00
2018-12-07T02:57:17.657Z,11.00
2018-12-07T02:59:45.884Z,11.00
2018-12-07T03:02:14.117Z,11.00
2018-12-07T03:04:42.336Z,11.00
2018-12-07T03:07:10.626Z,11.00
2018-12-07T03:09:38.890Z,11.00
2018-12-07T03:12:07.147Z,11.00
2018-12-07T03:14:36.070Z,10.90
2018-12-07T03:17:04.567Z,10.90
2018-12-07T03:19:32.843Z,10.90
2018-12-07T03:22:03.518Z,10.90
2018-12-07T03:24:34.104Z,10.90
2018-12-07T03:27:04.722Z,10.90
2018-12-07T03:29:35.134Z,10.90
2018-12-07T03:32:06.007Z,10.90
2018-12-07T03:34:37.421Z,10.90
2018-12-07T03:37:07.724Z,10.90
2018-12-07T03:39:38.681Z,10.90
2018-12-07T03:42:09.254Z,10.90
2018-12-07T03:44:39.902Z,10.90
2018-12-07T03:47:11.009Z,10.90
2018-12-07T03:49:41.818Z,10.80
2018-12-07T03:52:10.196Z,10.80
2018-12-07T03:54:38.618Z,10.90
2018-12-07T03:57:06.822Z,10.90
2018-12-07T03:59:35.161Z,10.90
2018-12-07T04:02:03.604Z,10.90
2018-12-07T04:04:31.961Z,10.90
2018-12-07T04:07:00.335Z,10.90
2018-12-07T04:09:28.613Z,10.90
2018-12-07T04:11:56.872Z,10.90
2018-12-07T04:14:25.121Z,10.90
2018-12-07T04:16:53.433Z,10.90
2018-12-07T04:19:21.704Z,10.90
2018-12-07T04:21:49.949Z,10.90
2018-12-07T04:24:18.311Z,10.90
2018-12-07T04:26:46.557Z,10.90
2018-12-07T04:29:14.862Z,10.90
2018-12-07T04:31:43.209Z,10.80
2018-12-07T04:34:11.478Z,10.80
2018-12-07T04:36:39.791Z,10.90
2018-12-07T04:39:08.064Z,10.90
2018-12-07T04:41:36.355Z,10.90
2018-12-07T04:44:04.722Z,10.90
2018-12-07T04:46:33.208Z,10.90
2018-12-07T04:49:01.455Z,10.90
2018-12-07T04:51:29.737Z,10.90
2018-12-07T04:53:58.018Z,10.90
2018-12-07T04:56:26.373Z,10.90
2018-12-07T04:58:54.620Z,10.90
2018-12-07T05:01:23.096Z,10.90
2018-12-07T05:03:51.345Z,10.90
2018-12-07T05:06:19.823Z,10.90
2018-12-07T05:08:48.061Z,10.90
2018-12-07T05:11:16.347Z,10.90
2018-12-07T05:13:45.428Z,10.90
2018-12-07T05:16:13.715Z,10.90
2018-12-07T05:18:41.977Z,10.90
2018-12-07T05:21:10.253Z,10.90
2018-12-07T05:23:38.548Z,10.90
2018-12-07T05:26:06.920Z,10.90
2018-12-07T05:28:35.291Z,10.90
2018-12-07T05:31:04.159Z,10.90
2018-12-07T05:33:32.437Z,10.90
2018-12-07T05:36:00.714Z,10.90
2018-12-07T05:38:28.991Z,10.90
2018-12-07T05:40:57.264Z,10.90
2018-12-07T05:43:25.505Z,10.90
2018-12-07T05:45:53.780Z,10.90
2018-12-07T05:48:23.706Z,10.90
2018-12-07T05:50:52.242Z,10.90
2018-12-07T05:53:20.541Z,10.90
2018-12-07T05:55:48.989Z,10.90
2018-12-07T05:58:17.266Z,10.90
2018-12-07T06:00:45.619Z,10.90
2018-12-07T06:03:13.857Z,10.90
2018-12-07T06:05:42.155Z,10.90
2018-12-07T06:08:10.410Z,10.90
2018-12-07T06:10:38.653Z,10.90
2018-12-07T06:13:06.899Z,10.90
2018-12-07T06:15:35.272Z,11.00
2018-12-07T06:18:03.519Z,11.00
2018-12-07T06:20:31.764Z,11.00
2018-12-07T06:23:00.081Z,11.00
2018-12-07T06:25:28.329Z,11.00
2018-12-07T06:27:56.623Z,11.00
2018-12-07T06:30:24.886Z,11.00
2018-12-07T06:32:53.228Z,11.00
2018-12-07T06:35:21.504Z,11.00
2018-12-07T06:37:49.756Z,11.00
2018-12-07T06:40:18.048Z,11.00
2018-12-07T06:42:46.320Z,11.00
2018-12-07T06:45:14.588Z,11.00
2018-12-07T06:47:42.966Z,11.00
2018-12-07T06:50:11.314Z,11.00
2018-12-07T06:52:39.558Z,11.00
2018-12-07T06:55:07.893Z,11.00
2018-12-07T06:57:36.406Z,11.00
2018-12-07T07:00:05.500Z,11.00
2018-12-07T07:02:33.778Z,11.00
2018-12-07T07:05:02.038Z,11.00
2018-12-07T07:07:30.297Z,11.10
2018-12-07T07:09:58.566Z,11.10
2018-12-07T07:12:33.383Z,11.10
2018-12-07T07:15:01.657Z,11.10
2018-12-07T07:17:29.958Z,11.10
2018-12-07T07:19:58.327Z,11.10
2018-12-07T07:22:26.596Z,11.20
2018-12-07T07:24:54.852Z,11.20
2018-12-07T07:27:23.221Z,11.20
2018-12-07T07:29:52.095Z,11.20
2018-12-07T07:32:20.473Z,11.20
2018-12-07T07:34:48.792Z,11.20
2018-12-07T07:37:17.279Z,11.20
2018-12-07T07:39:45.553Z,11.20
2018-12-07T07:42:14.143Z,11.10
2018-12-07T07:44:42.520Z,11.10
2018-12-07T07:47:10.806Z,11.10
2018-12-07T07:49:39.103Z,11.10
2018-12-07T07:52:07.403Z,11.10
2018-12-07T07:54:35.783Z,11.20
2018-12-07T07:57:04.212Z,11.20
2018-12-07T07:59:32.492Z,11.10
2018-12-07T08:02:00.926Z,11.10
2018-12-07T08:04:29.233Z,11.10
2018-12-07T08:06:57.596Z,11.10
2018-12-07T08:09:26.066Z,11.10
2018-12-07T08:11:56.624Z,11.10
2018-12-07T08:14:24.967Z,11.10
2018-12-07T08:16:53.467Z,11.10
2018-12-07T08:19:21.795Z,11.10
2018-12-07T08:21:50.059Z,11.10
2018-12-07T08:24:18.303Z,11.10
2018-12-07T08:26:46.683Z,11.00
2018-12-07T08:29:15.024Z,11.00
2018-12-07T08:31:43.331Z,11.00
2018-12-07T08:34:11.618Z,11.00
2018-12-07T08:36:39.899Z,11.00
2018-12-07T08:39:10.080Z,11.00
2018-12-07T08:41:38.365Z,11.00
2018-12-07T08:44:06.591Z,11.00
2018-12-07T08:46:34.885Z,11.00
2018-12-07T08:49:03.172Z,11.00
2018-12-07T08:51:31.458Z,11.00
2018-12-07T08:53:59.894Z,11.00
2018-12-07T08:56:28.248Z,11.00
2018-12-07T08:58:56.636Z,11.00
2018-12-07T09:01:25.019Z,11.00
2018-12-07T09:03:53.665Z,11.00
2018-12-07T09:06:22.244Z,11.10
2018-12-07T09:08:51.425Z,11.10
2018-12-07T09:11:20.858Z,11.10
2018-12-07T09:13:49.197Z,11.10
2018-12-07T09:16:17.587Z,11.10
2018-12-07T09:18:45.849Z,11.10
2018-12-07T09:21:14.125Z,11.10
2018-12-07T09:23:49.367Z,11.10
2018-12-07T09:26:12.708Z,11.10
2018-12-07T09:28:40.963Z,11.10
2018-12-07T09:31:09.301Z,11.10
2018-12-07T09:33:37.666Z,11.10
2018-12-07T09:36:06.015Z,11.10
2018-12-07T09:38:34.315Z,11.10
2018-12-07T09:41:02.825Z,11.10
2018-12-07T09:43:31.186Z,11.10
2018-12-07T09:45:59.541Z,11.10
2018-12-07T09:48:27.838Z,11.10
2018-12-07T09:50:56.122Z,11.10
2018-12-07T09:53:24.415Z,11.10
2018-12-07T09:55:52.699Z,11.10
2018-12-07T09:58:20.977Z,11.10
2018-12-07T10:00:49.312Z,11.10
2018-12-07T10:03:17.609Z,11.10
2018-12-07T10:05:45.991Z,11.10
2018-12-07T10:08:14.263Z,11.20
2018-12-07T10:10:42.607Z,11.20
2018-12-07T10:13:10.860Z,11.20
2018-12-07T10:15:39.156Z,11.20
2018-12-07T10:18:07.410Z,11.20
2018-12-07T10:20:35.675Z,11.20
2018-12-07T10:23:04.049Z,11.20
2018-12-07T10:25:32.516Z,11.20
2018-12-07T10:28:00.876Z,11.20
2018-12-07T10:30:29.155Z,11.20
2018-12-07T10:32:57.423Z,11.20
2018-12-07T10:35:25.734Z,11.20
2018-12-07T10:37:54.023Z,11.20
2018-12-07T10:40:22.404Z,11.20
2018-12-07T10:42:50.668Z,11.20
2018-12-07T10:45:19.027Z,11.20
2018-12-07T10:47:50.454Z,11.20
2018-12-07T10:50:17.592Z,11.20
2018-12-07T10:52:45.806Z,11.20
2018-12-07T10:55:14.110Z,11.20
2018-12-07T10:57:42.592Z,11.20
2018-12-07T11:00:22.727Z,11.20
2018-12-07T11:02:52.820Z,11.20
2018-12-07T11:05:26.734Z,11.20
2018-12-07T11:08:00.476Z,11.20
2018-12-07T11:10:34.267Z,11.20
2018-12-07T11:13:08.040Z,11.20
2018-12-07T11:15:42.913Z,11.20
2018-12-07T11:18:16.560Z,11.10
2018-12-07T11:20:50.252Z,11.10
2018-12-07T11:23:24.950Z,11.10
2018-12-07T11:25:58.536Z,11.20
2018-12-07T11:28:32.556Z,11.20
2018-12-07T11:31:06.348Z,11.20
2018-12-07T11:33:40.210Z,11.20
2018-12-07T11:36:08.675Z,11.30
2018-12-07T11:38:37.118Z,11.30
2018-12-07T11:41:05.511Z,11.30
2018-12-07T11:43:33.816Z,11.40
2018-12-07T11:46:02.214Z,11.40
2018-12-07T11:48:30.598Z,11.40
2018-12-07T11:50:58.967Z,11.40
2018-12-07T11:53:27.307Z,11.40
2018-12-07T11:55:55.690Z,11.40
2018-12-07T11:58:23.973Z,11.40
2018-12-07T12:00:52.306Z,11.40
2018-12-07T12:03:20.620Z,11.40
2018-12-07T12:05:48.928Z,11.40
2018-12-07T12:08:17.221Z,11.40
2018-12-07T12:10:45.715Z,11.40
2018-12-07T12:13:13.980Z,11.40
2018-12-07T12:15:42.459Z,11.40
2018-12-07T12:18:12.195Z,11.40
2018-12-07T12:20:40.486Z,11.50
2018-12-07T12:23:08.828Z,11.40
2018-12-07T12:25:37.110Z,11.50
2018-12-07T12:28:05.399Z,11.50
2018-12-07T12:30:33.698Z,11.50
2018-12-07T12:33:02.244Z,11.60
2018-12-07T12:35:31.078Z,11.60
2018-12-07T12:37:59.333Z,11.60
2018-12-07T12:40:27.639Z,11.60
2018-12-07T12:42:56.035Z,11.60
2018-12-07T12:45:24.544Z,11.60
2018-12-07T12:47:52.830Z,11.60
2018-12-07T12:50:26.968Z,11.60
2018-12-07T12:52:55.236Z,11.60
2018-12-07T12:55:23.586Z,11.60
2018-12-07T12:57:51.997Z,11.70
2018-12-07T13:00:20.419Z,11.60
2018-12-07T13:02:49.024Z,11.70
2018-12-07T13:05:17.464Z,11.70
2018-12-07T13:07:45.758Z,11.70
2018-12-07T13:10:14.128Z,11.70
2018-12-07T13:12:42.413Z,11.70
2018-12-07T13:15:10.676Z,11.70
2018-12-07T13:17:39.054Z,11.70
2018-12-07T13:20:08.734Z,11.70
2018-12-07T13:22:37.529Z,11.70
2018-12-07T13:25:07.070Z,11.70
2018-12-07T13:27:35.389Z,11.80
2018-12-07T13:30:04.295Z,11.80
2018-12-07T13:32:32.608Z,11.80
2018-12-07T13:35:00.891Z,11.80
2018-12-07T13:37:29.202Z,11.80
2018-12-07T13:39:57.474Z,11.80
2018-12-07T13:42:25.795Z,11.80
2018-12-07T13:44:54.235Z,11.90
2018-12-07T13:47:22.696Z,11.90
2018-12-07T13:49:55.262Z,11.90
2018-12-07T13:52:23.616Z,11.90
2018-12-07T13:54:53.192Z,11.90
2018-12-07T13:57:21.554Z,11.90
2018-12-07T13:59:49.953Z,11.90
2018-12-07T14:02:18.430Z,11.90
2018-12-07T14:04:46.837Z,12.00
2018-12-07T14:07:15.294Z,12.00
2018-12-07T14:09:43.725Z,11.90
2018-12-07T14:12:12.304Z,11.90
2018-12-07T14:14:40.764Z,11.90
2018-12-07T14:17:09.331Z,11.90
2018-12-07T14:19:37.707Z,11.90
2018-12-07T14:22:06.194Z,12.00
2018-12-07T14:24:34.526Z,11.90
2018-12-07T14:27:02.974Z,12.00
2018-12-07T14:29:31.602Z,12.00
2018-12-07T14:31:59.975Z,12.00
2018-12-07T14:34:28.912Z,12.00
2018-12-07T14:36:57.390Z,12.00
2018-12-07T14:39:25.772Z,12.00
2018-12-07T14:41:54.248Z,12.00
2018-12-07T14:44:22.818Z,12.00
2018-12-07T14:46:51.380Z,12.00
2018-12-07T14:49:19.829Z,12.00
2018-12-07T14:51:48.299Z,11.90
2018-12-07T14:54:16.813Z,11.90
2018-12-07T14:56:45.299Z,11.80
2018-12-07T14:59:13.750Z,11.70
2018-12-07T15:01:42.289Z,11.50
2018-12-07T15:04:10.617Z,11.50
2018-12-07T15:06:39.031Z,11.40
2018-12-07T15:09:09.902Z,11.30
2018-12-07T15:11:38.449Z,11.20
2018-12-07T15:14:06.756Z,11.20
2018-12-07T15:16:35.242Z,11.20
2018-12-07T15:19:03.718Z,11.10
2018-12-07T15:21:32.915Z,11.00
2018-12-07T15:24:01.728Z,11.00
2018-12-07T15:26:31.155Z,10.90
2018-12-07T15:28:59.570Z,10.90
2018-12-07T15:31:28.053Z,10.90
2018-12-07T15:33:56.417Z,10.80
2018-12-07T15:36:25.941Z,10.80
2018-12-07T15:38:54.412Z,10.80
2018-12-07T15:41:23.106Z,10.80
2018-12-07T15:43:51.591Z,10.80
2018-12-07T15:46:19.988Z,10.80
2018-12-07T15:48:48.340Z,10.80
2018-12-07T15:51:16.830Z,10.80
2018-12-07T15:53:45.945Z,10.80
2018-12-07T15:56:16.134Z,10.80
2018-12-07T15:58:44.916Z,10.80
2018-12-07T16:01:13.835Z,10.90
2018-12-07T16:03:42.255Z,10.90
2018-12-07T16:06:10.735Z,11.10
2018-12-07T16:08:39.349Z,11.10
2018-12-07T16:11:08.487Z,11.10
2018-12-07T16:13:38.990Z,11.10
2018-12-07T16:16:08.578Z,11.00
2018-12-07T16:18:39.027Z,11.00
2018-12-07T16:21:07.724Z,11.10
2018-12-07T16:23:36.668Z,11.10
2018-12-07T16:26:05.061Z,11.20
2018-12-07T16:28:33.425Z,11.30
2018-12-07T16:31:03.916Z,11.30
2018-12-07T16:33:33.537Z,11.40
2018-12-07T16:36:02.710Z,11.40
2018-12-07T16:38:31.693Z,11.30
2018-12-07T16:41:00.151Z,11.20
2018-12-07T16:43:28.874Z,11.10
2018-12-07T16:45:57.733Z,11.00
2018-12-07T16:48:26.630Z,11.00
2018-12-07T16:50:55.013Z,10.90
2018-12-07T16:53:23.663Z,10.90
2018-12-07T16:55:52.165Z,10.90
2018-12-07T16:58:20.782Z,10.90
2018-12-07T17:00:49.150Z,10.90
2018-12-07T17:03:18.860Z,10.80
2018-12-07T17:05:47.640Z,10.70
2018-12-07T17:08:16.414Z,10.70
2018-12-07T17:10:45.011Z,10.60
2018-12-07T17:13:14.796Z,10.60
2018-12-07T17:15:43.591Z,10.50
2018-12-07T17:18:12.906Z,10.50
2018-12-07T17:20:41.576Z,10.40
2018-12-07T17:23:11.005Z,10.40
2018-12-07T17:25:41.818Z,10.30
2018-12-07T17:28:11.747Z,10.40
2018-12-07T17:30:41.131Z,10.30
2018-12-07T17:33:11.377Z,10.30
2018-12-07T17:38:21.117Z,10.30
2018-12-07T17:40:50.622Z,10.30
2018-12-07T17:43:19.994Z,10.20
2018-12-07T17:45:49.068Z,10.20
2018-12-07T17:48:17.694Z,10.20
2018-12-07T17:50:46.256Z,10.20
2018-12-07T17:53:15.102Z,10.20
2018-12-07T17:55:44.401Z,10.20
2018-12-07T17:58:13.283Z,10.20
2018-12-07T18:00:43.015Z,10.10
2018-12-07T18:03:11.774Z,10.10
2018-12-07T18:05:40.074Z,10.10
2018-12-07T18:08:11.327Z,10.10
2018-12-07T18:10:40.301Z,10.10
2018-12-07T18:13:09.763Z,10.10
2018-12-07T18:15:39.206Z,10.10
2018-12-07T18:18:07.691Z,10.10
2018-12-07T18:20:36.469Z,10.10
2018-12-07T18:23:05.547Z,10.10
2018-12-07T18:25:35.645Z,10.10
2018-12-07T18:28:04.261Z,10.10
2018-12-07T18:30:33.206Z,10.10
2018-12-07T18:33:01.963Z,10.00
2018-12-07T18:35:30.790Z,10.00
2018-12-07T18:37:59.304Z,10.00
2018-12-07T18:40:28.056Z,10.00
2018-12-07T18:42:56.640Z,10.00
2018-12-07T18:45:25.026Z,10.00
2018-12-07T18:47:53.844Z,10.00
2018-12-07T18:50:23.639Z,10.00
2018-12-07T18:52:52.590Z,10.10
2018-12-07T18:55:21.459Z,10.10
2018-12-07T18:57:50.242Z,10.10
2018-12-07T19:00:19.279Z,10.10
2018-12-07T19:02:47.917Z,10.20
2018-12-07T19:05:16.231Z,10.20
2018-12-07T19:07:45.311Z,10.20
2018-12-07T19:10:13.856Z,10.10
2018-12-07T19:12:42.282Z,10.10
2018-12-07T19:15:11.623Z,10.00
2018-12-07T19:17:40.527Z,10.00
2018-12-07T19:20:09.372Z,9.90
2018-12-07T19:22:37.742Z,9.80
2018-12-07T19:25:07.977Z,9.60
2018-12-07T19:27:36.547Z,9.40
2018-12-07T19:30:14.327Z,9.20
2018-12-07T19:32:37.331Z,8.90
2018-12-07T19:35:06.200Z,8.70
2018-12-07T19:37:34.684Z,8.40
2018-12-07T19:40:03.327Z,8.20
2018-12-07T19:42:32.717Z,8.10
2018-12-07T19:45:02.218Z,8.00
2018-12-07T19:47:30.769Z,7.90
2018-12-07T19:50:00.083Z,7.80
2018-12-07T19:52:28.471Z,7.70
2018-12-07T19:54:57.017Z,7.70
2018-12-07T19:57:26.434Z,7.60
2018-12-07T19:59:55.917Z,7.60
2018-12-07T20:02:24.287Z,7.70
2018-12-07T20:04:52.680Z,7.60
2018-12-07T20:07:21.851Z,7.60
2018-12-07T20:09:50.631Z,7.50
2018-12-07T20:12:19.445Z,7.50
2018-12-07T20:14:49.031Z,7.40
2018-12-07T20:17:18.526Z,7.40
2018-12-07T20:19:48.982Z,7.40
2018-12-07T20:22:17.947Z,7.40
2018-12-07T20:24:46.327Z,7.30
2018-12-07T20:27:14.787Z,7.30
2018-12-07T20:29:43.302Z,7.30
2018-12-07T20:32:12.477Z,7.30
2018-12-07T20:34:40.844Z,7.30
2018-12-07T20:37:09.229Z,7.30
2018-12-07T20:39:37.680Z,7.30
2018-12-07T20:42:06.375Z,7.30
2018-12-07T20:44:34.865Z,7.30
2018-12-07T20:47:03.389Z,7.20
2018-12-07T20:49:31.795Z,7.20
2018-12-07T20:52:04.253Z,7.20
2018-12-07T20:54:33.101Z,7.20
2018-12-07T20:57:01.754Z,7.10
2018-12-07T20:59:30.235Z,7.20
2018-12-07T21:01:58.800Z,7.20
2018-12-07T21:04:33.558Z,7.20
2018-12-07T21:07:25.446Z,7.10
2018-12-07T21:11:17.207Z,7.10
2018-12-07T21:14:02.481Z,7.10
2018-12-07T21:16:58.731Z,7.10
2018-12-07T21:19:27.318Z,7.20
2018-12-07T21:21:55.803Z,7.10
2018-12-07T21:24:24.233Z,7.10
2018-12-07T21:26:52.530Z,7.10
2018-12-07T21:29:20.813Z,7.10
2018-12-07T21:31:49.344Z,7.10
2018-12-07T21:34:31.316Z,7.10
2018-12-07T21:36:59.965Z,7.20
2018-12-07T21:39:50.499Z,7.20
2018-12-07T21:42:19.032Z,7.10
2018-12-07T21:44:47.777Z,7.10
2018-12-07T21:47:35.928Z,7.10
2018-12-07T21:50:11.856Z,7.10
2018-12-07T21:52:40.177Z,7.10
2018-12-07T21:55:08.770Z,7.10
2018-12-07T21:57:37.398Z,7.10
2018-12-07T22:00:06.382Z,7.00
2018-12-07T22:02:34.773Z,7.00
2018-12-07T22:05:03.387Z,6.90
2018-12-07T22:07:32.848Z,6.90
2018-12-07T22:10:01.120Z,6.90
2018-12-07T22:12:29.542Z,6.90
2018-12-07T22:14:58.318Z,6.90
2018-12-07T22:17:27.144Z,6.80
2018-12-07T22:19:55.548Z,6.80
2018-12-07T22:22:23.938Z,6.80
2018-12-07T22:24:52.674Z,6.70
2018-12-07T22:27:21.071Z,6.70
2018-12-07T22:29:49.668Z,6.70
2018-12-07T22:32:18.364Z,6.60
2018-12-07T22:34:48.834Z,6.60
2018-12-07T22:37:17.517Z,6.60
2018-12-07T22:39:46.084Z,6.60
2018-12-07T22:42:14.695Z,6.70
2018-12-07T22:44:43.727Z,6.70
2018-12-07T22:47:12.940Z,6.80
2018-12-07T22:49:41.586Z,6.80
2018-12-07T22:52:11.071Z,6.90
2018-12-07T22:54:39.532Z,6.90
2018-12-07T22:57:08.356Z,6.90
2018-12-07T22:59:36.660Z,6.90
2018-12-07T23:02:05.340Z,6.90
2018-12-07T23:04:34.019Z,6.90
2018-12-07T23:07:02.462Z,6.80
2018-12-07T23:09:30.979Z,6.80
2018-12-07T23:11:59.249Z,6.80
2018-12-07T23:14:27.781Z,6.80
2018-12-07T23:16:56.166Z,6.80
2018-12-07T23:19:24.819Z,6.80
2018-12-07T23:21:53.634Z,6.80
2018-12-07T23:24:22.118Z,6.70
2018-12-07T23:26:51.080Z,6.70
2018-12-07T23:29:22.320Z,6.60
2018-12-07T23:31:50.686Z,6.60
2018-12-07T23:34:18.988Z,6.60
2018-12-07T23:36:47.318Z,6.50
2018-12-07T23:39:16.034Z,6.50
2018-12-07T23:41:44.292Z,6.60
2018-12-07T23:44:12.795Z,6.60
2018-12-07T23:46:42.091Z,6.60
2018-12-07T23:49:11.183Z,6.60
2018-12-07T23:51:39.452Z,6.60
2018-12-07T23:54:07.742Z,6.60
2018-12-07T23:59:16.404Z,6.60
